Time;durP1;ratioP1;P1;durP2;ratioP2;P2;SDS_P1;SDS_P2;PMS_P1;PMS_P2;Temp;Humidity;BMP_temperature;BMP_pressure;BME280_temperature;BME280_humidity;BME280_pressure;Samples;Min_cycle;Max_cycle;Signal;HPM_P1;HPM_P2
2023/03/27 00:00:08;;;;;;;6.55;3.05;;;;;;;;;;5004300;28;20180;-42
2023/03/27 00:02:33;;;;;;;13.38;2.35;;;;;;;;;;5007817;28;20204;-42
2023/03/27 00:05:00;;;;;;;4.90;1.90;;;;;;;;;;5001544;28;20224;-42
2023/03/27 00:07:26;;;;;;;6.53;2.28;;;;;;;;;;5001895;28;20922;-42
2023/03/27 00:09:52;;;;;;;6.82;1.75;;;;;;;;;;5001202;28;20172;-42
2023/03/27 00:12:18;;;;;;;6.40;2.80;;;;;;;;;;5001896;28;20211;-42
2023/03/27 00:14:45;;;;;;;6.50;2.00;;;;;;;;;;4996085;28;20492;-43
2023/03/27 00:17:11;;;;;;;6.03;2.70;;;;;;;;;;5006964;28;20418;-43
2023/03/27 00:19:37;;;;;;;6.05;2.05;;;;;;;;;;4998300;28;20177;-45
2023/03/27 00:22:04;;;;;;;7.22;2.30;;;;;;;;;;5005688;28;20215;-43
2023/03/27 00:24:30;;;;;;;6.70;2.40;;;;;;;;;;5002313;28;20313;-42
2023/03/27 00:26:57;;;;;;;5.37;2.20;;;;;;;;;;5003980;28;20259;-42
2023/03/27 00:29:23;;;;;;;3.10;2.28;;;;;;;;;;5000897;28;20481;-43
2023/03/27 00:31:49;;;;;;;4.00;2.10;;;;;;;;;;5001557;28;20200;-45
2023/03/27 00:34:15;;;;;;;13.23;2.60;;;;;;;;;;5004360;28;20276;-43
2023/03/27 00:36:42;;;;;;;3.70;1.77;;;;;;;;;;4996595;28;20432;-42
2023/03/27 00:39:09;;;;;;;3.63;2.22;;;;;;;;;;5004237;28;20446;-42
2023/03/27 00:41:35;;;;;;;5.28;2.17;;;;;;;;;;4998083;28;20211;-43
2023/03/27 00:44:02;;;;;;;13.17;2.60;;;;;;;;;;5002935;28;20280;-42
2023/03/27 00:46:41;;;;;;;9.38;2.10;;;;;;;;;;5007267;28;20565;-42
2023/03/27 00:49:08;;;;;;;4.72;2.10;;;;;;;;;;4995847;28;20172;-43
2023/03/27 00:51:35;;;;;;;4.30;2.40;;;;;;;;;;4997670;28;20271;-43
2023/03/27 00:54:03;;;;;;;15.57;2.92;;;;;;;;;;5005537;28;20256;-43
2023/03/27 00:56:29;;;;;;;4.18;2.60;;;;;;;;;;4999743;28;20646;-43
2023/03/27 00:58:58;;;;;;;9.68;2.22;;;;;;;;;;5000044;28;20234;-43
2023/03/27 01:01:26;;;;;;;5.90;2.20;;;;;;;;;;4997032;28;20240;-43
2023/03/27 01:03:53;;;;;;;6.38;2.13;;;;;;;;;;4999710;28;20216;-42
2023/03/27 01:06:19;;;;;;;11.85;2.03;;;;;;;;;;5003200;28;20164;-42
2023/03/27 01:08:46;;;;;;;4.93;2.88;;;;;;;;;;5003710;28;20640;-43
2023/03/27 01:11:30;;;;;;;19.13;3.13;;;;;;;;;;5004441;28;20258;-43
2023/03/27 01:14:00;;;;;;;7.25;2.05;;;;;;;;;;4998210;28;20756;-43
2023/03/27 01:16:30;;;;;;;3.17;2.25;;;;;;;;;;4999575;28;20172;-42
2023/03/27 01:19:11;;;;;;;7.88;2.15;;;;;;;;;;5003737;28;20184;-44
2023/03/27 01:21:37;;;;;;;4.57;2.25;;;;;;;;;;4999620;28;20208;-42
2023/03/27 01:24:22;;;;;;;11.10;2.27;;;;;;;;;;5003663;28;20249;-42
2023/03/27 01:26:56;;;;;;;5.32;1.95;;;;;;;;;;4988888;28;20513;-44
2023/03/27 01:29:24;;;;;;;8.95;3.38;;;;;;;;;;4997952;28;20177;-43
2023/03/27 01:32:09;;;;;;;8.20;2.78;;;;;;;;;;5002690;28;20200;-42
2023/03/27 01:34:53;;;;;;;2.67;2.45;;;;;;;;;;5002271;28;20184;-42
2023/03/27 01:37:28;;;;;;;9.77;2.10;;;;;;;;;;5003713;28;20669;-42
2023/03/27 01:40:03;;;;;;;5.47;2.55;;;;;;;;;;4993064;28;20271;-43
2023/03/27 01:42:47;;;;;;;5.70;2.42;;;;;;;;;;4998710;28;20214;-42
2023/03/27 01:45:19;;;;;;;5.70;2.15;;;;;;;;;;4995871;28;20181;-42
2023/03/27 01:47:48;;;;;;;6.10;2.00;;;;;;;;;;5000964;28;20184;-43
2023/03/27 01:50:14;;;;;;;7.63;2.85;;;;;;;;;;4999833;28;20600;-42
2023/03/27 01:52:41;;;;;;;11.43;3.03;;;;;;;;;;5005575;28;20181;-42
2023/03/27 01:55:10;;;;;;;8.68;2.40;;;;;;;;;;4996471;28;21167;-43
2023/03/27 01:57:40;;;;;;;10.88;2.33;;;;;;;;;;5002290;28;20195;-42
2023/03/27 02:00:16;;;;;;;16.15;2.80;;;;;;;;;;4997749;28;20207;-43
2023/03/27 02:02:48;;;;;;;4.65;2.40;;;;;;;;;;5008814;28;20227;-42
2023/03/27 02:05:20;;;;;;;7.82;3.20;;;;;;;;;;5002071;28;20168;-43
2023/03/27 02:07:50;;;;;;;16.80;3.03;;;;;;;;;;4996660;28;20195;-43
2023/03/27 02:10:18;;;;;;;8.98;2.92;;;;;;;;;;4994366;28;20242;-43
2023/03/27 02:12:54;;;;;;;4.10;2.47;;;;;;;;;;5002138;28;20260;-43
2023/03/27 02:15:21;;;;;;;11.80;2.58;;;;;;;;;;5003147;28;20245;-43
2023/03/27 02:17:49;;;;;;;4.80;2.35;;;;;;;;;;4995599;28;20193;-42
2023/03/27 02:20:16;;;;;;;5.00;2.13;;;;;;;;;;5007057;28;20191;-43
2023/03/27 02:22:44;;;;;;;5.80;2.72;;;;;;;;;;5001297;28;20197;-42
2023/03/27 02:25:39;;;;;;;5.53;2.67;;;;;;;;;;4999022;28;20933;-42
2023/03/27 02:28:24;;;;;;;3.85;2.35;;;;;;;;;;4986553;28;20227;-42
2023/03/27 02:31:05;;;;;;;6.75;2.58;;;;;;;;;;4999109;28;20266;-43
2023/03/27 02:33:34;;;;;;;6.68;2.38;;;;;;;;;;5011858;28;20173;-42
2023/03/27 02:36:00;;;;;;;11.68;2.47;;;;;;;;;;5005372;28;20171;-42
2023/03/27 02:38:32;;;;;;;4.90;2.40;;;;;;;;;;5003805;28;20634;-42
2023/03/27 02:41:01;;;;;;;4.97;2.42;;;;;;;;;;5002830;28;20498;-43
2023/03/27 02:43:30;;;;;;;4.63;2.30;;;;;;;;;;5007375;28;20691;-42
2023/03/27 02:45:59;;;;;;;7.70;3.47;;;;;;;;;;5002915;28;20200;-43
2023/03/27 02:48:45;;;;;;;15.45;2.50;;;;;;;;;;5004543;28;20239;-42
2023/03/27 02:51:18;;;;;;;9.02;3.00;;;;;;;;;;5005499;28;20205;-43
2023/03/27 02:53:50;;;;;;;10.98;2.53;;;;;;;;;;5007334;28;20195;-42
2023/03/27 02:56:18;;;;;;;4.72;2.60;;;;;;;;;;4996638;28;20235;-43
2023/03/27 02:58:44;;;;;;;9.70;2.70;;;;;;;;;;5006391;28;20199;-43
2023/03/27 03:01:12;;;;;;;5.73;2.00;;;;;;;;;;5004722;28;20563;-42
2023/03/27 03:03:38;;;;;;;8.15;2.45;;;;;;;;;;5004516;28;20407;-43
2023/03/27 03:06:05;;;;;;;3.53;2.50;;;;;;;;;;5002501;28;20200;-42
2023/03/27 03:08:37;;;;;;;7.25;2.58;;;;;;;;;;5004800;28;20766;-42
2023/03/27 03:11:03;;;;;;;5.18;2.28;;;;;;;;;;5001070;28;20403;-43
2023/03/27 03:13:29;;;;;;;5.28;2.53;;;;;;;;;;5009425;28;20181;-42
2023/03/27 03:15:55;;;;;;;9.02;2.47;;;;;;;;;;5004965;28;20183;-43
2023/03/27 03:18:21;;;;;;;4.40;2.22;;;;;;;;;;5006905;28;20648;-42
2023/03/27 03:20:47;;;;;;;9.75;2.65;;;;;;;;;;5004332;28;20192;-42
2023/03/27 03:23:13;;;;;;;4.13;1.90;;;;;;;;;;5004382;28;20677;-42
2023/03/27 03:25:40;;;;;;;6.40;2.90;;;;;;;;;;5000844;28;20431;-42
2023/03/27 03:28:08;;;;;;;3.00;2.30;;;;;;;;;;5003645;28;20506;-42
2023/03/27 03:30:37;;;;;;;5.20;2.53;;;;;;;;;;5003236;28;20546;-43
2023/03/27 03:33:03;;;;;;;3.67;2.17;;;;;;;;;;5003432;28;20189;-43
2023/03/27 03:35:29;;;;;;;4.83;2.87;;;;;;;;;;5000158;28;20183;-42
2023/03/27 03:37:56;;;;;;;8.60;2.92;;;;;;;;;;5005850;28;20423;-43
2023/03/27 03:40:22;;;;;;;8.20;2.63;;;;;;;;;;5001909;28;20173;-43
2023/03/27 03:42:52;;;;;;;6.20;2.23;;;;;;;;;;5005490;28;20281;-43
2023/03/27 03:45:18;;;;;;;12.45;2.83;;;;;;;;;;5003272;28;20989;-42
2023/03/27 03:47:45;;;;;;;6.28;2.70;;;;;;;;;;5005858;28;20673;-42
2023/03/27 03:50:11;;;;;;;11.43;3.42;;;;;;;;;;5004867;28;20184;-42
2023/03/27 03:52:38;;;;;;;8.73;3.72;;;;;;;;;;4998266;28;20184;-43
2023/03/27 03:55:04;;;;;;;7.80;2.88;;;;;;;;;;5004000;28;20259;-42
2023/03/27 03:57:30;;;;;;;7.57;3.17;;;;;;;;;;5001937;28;20660;-42
2023/03/27 03:59:57;;;;;;;5.20;2.50;;;;;;;;;;5004112;28;20535;-43
2023/03/27 04:02:29;;;;;;;10.52;3.13;;;;;;;;;;5004448;28;20196;-42
2023/03/27 04:04:58;;;;;;;5.78;3.15;;;;;;;;;;5002929;28;20177;-42
2023/03/27 04:07:30;;;;;;;6.70;2.80;;;;;;;;;;5000662;28;20180;-43
2023/03/27 04:09:57;;;;;;;6.68;2.83;;;;;;;;;;5007561;28;20188;-42
2023/03/27 04:12:23;;;;;;;11.13;3.15;;;;;;;;;;5003969;28;20368;-42
2023/03/27 04:14:49;;;;;;;6.78;2.97;;;;;;;;;;5003719;28;20192;-43
2023/03/27 04:17:15;;;;;;;9.50;3.03;;;;;;;;;;4999983;28;20578;-43
2023/03/27 04:19:41;;;;;;;7.10;2.83;;;;;;;;;;5002204;28;20176;-42
2023/03/27 04:22:07;;;;;;;14.23;3.87;;;;;;;;;;5001277;28;20971;-43
2023/03/27 04:24:33;;;;;;;8.57;3.00;;;;;;;;;;5004666;28;20431;-42
2023/03/27 04:27:02;;;;;;;13.63;3.07;;;;;;;;;;5000212;28;20188;-43
2023/03/27 04:29:29;;;;;;;11.27;2.83;;;;;;;;;;5007073;28;20431;-43
2023/03/27 04:31:56;;;;;;;4.75;3.03;;;;;;;;;;5000303;28;20200;-43
2023/03/27 04:34:22;;;;;;;7.68;3.20;;;;;;;;;;5003417;28;20276;-42
2023/03/27 04:36:51;;;;;;;5.65;3.03;;;;;;;;;;5003603;28;20192;-43
2023/03/27 04:39:18;;;;;;;13.70;3.50;;;;;;;;;;5003859;28;20188;-42
2023/03/27 04:41:48;;;;;;;4.07;3.00;;;;;;;;;;5003881;28;20204;-42
2023/03/27 04:44:17;;;;;;;10.68;3.75;;;;;;;;;;5001506;28;20212;-42
2023/03/27 04:46:50;;;;;;;8.30;2.90;;;;;;;;;;5003693;28;20185;-43
2023/03/27 04:49:17;;;;;;;8.73;2.83;;;;;;;;;;5001791;28;20176;-42
2023/03/27 04:51:44;;;;;;;5.05;3.50;;;;;;;;;;5000523;28;20205;-43
2023/03/27 04:54:10;;;;;;;8.05;3.78;;;;;;;;;;5000997;28;20623;-43
2023/03/27 04:56:36;;;;;;;3.33;3.03;;;;;;;;;;4998978;28;20181;-42
2023/03/27 04:59:03;;;;;;;6.20;3.10;;;;;;;;;;5009166;28;20206;-42
2023/03/27 05:01:29;;;;;;;6.25;2.63;;;;;;;;;;5004970;28;20870;-43
2023/03/27 05:03:56;;;;;;;16.95;4.65;;;;;;;;;;4993279;28;20537;-42
2023/03/27 05:06:22;;;;;;;6.10;3.08;;;;;;;;;;5001060;28;20176;-42
2023/03/27 05:08:48;;;;;;;5.72;3.53;;;;;;;;;;5002632;28;20185;-42
2023/03/27 05:11:14;;;;;;;6.75;2.88;;;;;;;;;;5003748;28;20608;-42
2023/03/27 05:13:40;;;;;;;7.85;3.75;;;;;;;;;;4996578;28;20181;-42
2023/03/27 05:16:08;;;;;;;13.10;3.38;;;;;;;;;;4998985;28;20196;-42
2023/03/27 05:18:34;;;;;;;9.15;3.75;;;;;;;;;;5005488;28;20197;-42
2023/03/27 05:21:01;;;;;;;12.10;3.20;;;;;;;;;;5003373;28;20621;-42
2023/03/27 05:23:28;;;;;;;6.10;2.83;;;;;;;;;;5000799;28;20428;-42
2023/03/27 05:25:55;;;;;;;8.85;3.00;;;;;;;;;;5003298;28;20227;-43
2023/03/27 05:28:21;;;;;;;12.68;3.88;;;;;;;;;;4997237;28;20177;-43
2023/03/27 05:30:48;;;;;;;7.32;3.22;;;;;;;;;;5003378;28;20239;-43
2023/03/27 05:33:15;;;;;;;7.72;3.08;;;;;;;;;;4998336;28;20208;-42
2023/03/27 05:35:45;;;;;;;11.05;3.50;;;;;;;;;;5002833;28;20189;-42
2023/03/27 05:38:11;;;;;;;6.22;2.83;;;;;;;;;;4999035;28;20511;-44
2023/03/27 05:40:38;;;;;;;8.25;3.35;;;;;;;;;;5002250;28;20211;-42
2023/03/27 05:43:04;;;;;;;5.57;3.67;;;;;;;;;;5003748;28;20211;-42
2023/03/27 05:45:32;;;;;;;9.63;3.42;;;;;;;;;;5003747;28;20176;-42
2023/03/27 05:47:59;;;;;;;9.55;3.88;;;;;;;;;;5005159;28;20180;-42
2023/03/27 05:50:28;;;;;;;10.32;2.92;;;;;;;;;;5012556;28;20200;-43
2023/03/27 05:52:55;;;;;;;4.28;3.80;;;;;;;;;;4999986;28;20661;-43
2023/03/27 05:55:22;;;;;;;3.20;2.63;;;;;;;;;;5004109;28;20189;-43
2023/03/27 05:57:48;;;;;;;7.35;3.22;;;;;;;;;;5005190;28;20175;-42
2023/03/27 06:00:15;;;;;;;9.73;3.40;;;;;;;;;;5003673;28;20260;-42
2023/03/27 06:02:42;;;;;;;7.00;3.65;;;;;;;;;;5003690;28;20463;-44
2023/03/27 06:05:16;;;;;;;12.63;2.90;;;;;;;;;;5006224;28;20195;-42
2023/03/27 06:07:42;;;;;;;12.18;3.13;;;;;;;;;;5008650;28;20177;-42
2023/03/27 06:10:09;;;;;;;12.07;3.90;;;;;;;;;;5008928;28;20192;-42
2023/03/27 06:12:36;;;;;;;9.48;2.88;;;;;;;;;;5000471;28;20184;-42
2023/03/27 06:18:05;;;;;;;12.45;4.22;;;;;;;;;;5000739;28;20178;-42
2023/03/27 06:20:34;;;;;;;7.28;3.00;;;;;;;;;;5004275;28;20213;-42
2023/03/27 06:23:00;;;;;;;7.55;3.70;;;;;;;;;;5002316;28;20793;-42
2023/03/27 06:25:27;;;;;;;5.90;2.97;;;;;;;;;;5003657;28;20177;-43
2023/03/27 06:27:54;;;;;;;3.70;3.20;;;;;;;;;;5004175;28;20251;-43
2023/03/27 06:30:23;;;;;;;3.97;2.92;;;;;;;;;;5002845;28;20184;-44
2023/03/27 06:32:50;;;;;;;6.95;3.30;;;;;;;;;;5009154;28;20615;-43
2023/03/27 06:35:17;;;;;;;4.55;2.70;;;;;;;;;;5010224;28;20211;-42
2023/03/27 06:37:47;;;;;;;7.18;3.05;;;;;;;;;;4997749;28;20184;-43
2023/03/27 06:40:19;;;;;;;8.38;3.45;;;;;;;;;;5004017;28;20184;-42
2023/03/27 06:42:59;;;;;;;6.78;3.00;;;;;;;;;;5003063;28;20213;-42
2023/03/27 06:45:27;;;;;;;14.50;2.90;;;;;;;;;;5003449;28;20165;-42
2023/03/27 06:47:54;;;;;;;8.40;3.08;;;;;;;;;;5006445;28;20168;-42
2023/03/27 06:50:20;;;;;;;4.63;2.58;;;;;;;;;;5003061;28;20180;-44
2023/03/27 06:52:49;;;;;;;7.68;3.05;;;;;;;;;;4999691;28;20213;-43
2023/03/27 06:55:16;;;;;;;4.80;2.85;;;;;;;;;;4998840;28;20259;-43
2023/03/27 06:57:43;;;;;;;8.70;2.30;;;;;;;;;;5000721;28;20177;-44
2023/03/27 07:00:18;;;;;;;11.13;2.70;;;;;;;;;;5000412;28;20484;-43
2023/03/27 07:02:45;;;;;;;4.93;2.00;;;;;;;;;;5003017;28;20462;-43
2023/03/27 07:05:11;;;;;;;2.47;2.27;;;;;;;;;;5006145;28;20498;-42
2023/03/27 07:07:36;;;;;;;4.20;2.10;;;;;;;;;;5004436;28;20414;-42
2023/03/27 07:10:03;;;;;;;3.70;2.10;;;;;;;;;;5001696;28;20418;-43
2023/03/27 07:12:29;;;;;;;5.40;3.13;;;;;;;;;;4997719;28;20435;-44
2023/03/27 07:14:55;;;;;;;4.00;1.90;;;;;;;;;;5003982;28;20447;-43
2023/03/27 07:17:21;;;;;;;1.73;1.63;;;;;;;;;;5007574;28;20454;-42
2023/03/27 07:19:47;;;;;;;7.17;2.53;;;;;;;;;;5001373;28;20403;-42
2023/03/27 07:22:13;;;;;;;4.33;1.50;;;;;;;;;;4993228;28;20468;-42
2023/03/27 07:24:40;;;;;;;5.10;1.90;;;;;;;;;;4993941;28;20897;-44
2023/03/27 07:27:06;;;;;;;3.63;1.57;;;;;;;;;;4998081;28;20416;-43
2023/03/27 07:29:32;;;;;;;3.00;2.23;;;;;;;;;;5011260;28;20418;-43
2023/03/27 07:31:58;;;;;;;3.50;2.47;;;;;;;;;;5007000;28;20439;-43
2023/03/27 07:34:24;;;;;;;2.87;1.80;;;;;;;;;;4997957;28;20443;-42
2023/03/27 07:36:50;;;;;;;3.93;1.60;;;;;;;;;;5008788;28;20424;-42
2023/03/27 07:39:16;;;;;;;6.80;2.27;;;;;;;;;;4996582;28;20498;-43
2023/03/27 07:41:42;;;;;;;3.83;1.80;;;;;;;;;;4998084;28;20458;-42
2023/03/27 07:44:08;;;;;;;5.07;1.83;;;;;;;;;;4999672;28;20928;-43
2023/03/27 07:46:34;;;;;;;3.53;1.93;;;;;;;;;;5003029;28;20474;-43
2023/03/27 07:49:00;;;;;;;9.57;1.70;;;;;;;;;;5005786;28;20485;-43
2023/03/27 07:51:27;;;;;;;2.30;1.60;;;;;;;;;;5004355;28;20839;-43
2023/03/27 07:53:55;;;;;;;1.67;1.47;;;;;;;;;;5009402;28;21000;-43
2023/03/27 07:56:22;;;;;;;5.10;1.57;;;;;;;;;;5009203;28;20418;-43
2023/03/27 07:58:48;;;;;;;5.80;2.00;;;;;;;;;;4998306;28;20458;-42
2023/03/27 08:01:14;;;;;;;10.30;1.73;;;;;;;;;;5001109;28;20494;-43
2023/03/27 08:03:40;;;;;;;2.10;1.30;;;;;;;;;;5003632;28;20450;-42
2023/03/27 08:06:07;;;;;;;4.03;1.43;;;;;;;;;;5001516;28;20415;-42
2023/03/27 08:08:33;;;;;;;5.70;2.10;;;;;;;;;;4999053;28;20424;-42
2023/03/27 08:11:00;;;;;;;2.27;1.60;;;;;;;;;;4999844;28;21019;-42
2023/03/27 08:13:26;;;;;;;1.50;1.37;;;;;;;;;;5004721;28;20413;-42
2023/03/27 08:16:01;;;;;;;1.40;1.20;;;;;;;;;;5004322;28;20418;-43
2023/03/27 08:18:27;;;;;;;2.00;1.20;;;;;;;;;;5009333;28;20889;-43
2023/03/27 08:20:57;;;;;;;5.37;1.47;;;;;;;;;;5008625;28;20439;-43
2023/03/27 08:23:26;;;;;;;2.40;1.20;;;;;;;;;;5001013;28;20482;-43
2023/03/27 08:25:52;;;;;;;4.40;2.07;;;;;;;;;;4995038;28;21025;-42
2023/03/27 08:28:18;;;;;;;8.87;4.80;;;;;;;;;;5002870;28;20891;-43
2023/03/27 08:30:44;;;;;;;4.30;1.53;;;;;;;;;;5000597;28;20443;-42
2023/03/27 08:33:10;;;;;;;1.80;1.37;;;;;;;;;;4999951;28;20917;-42
2023/03/27 08:35:36;;;;;;;4.90;2.03;;;;;;;;;;5004486;28;20421;-42
2023/03/27 08:38:02;;;;;;;4.63;1.80;;;;;;;;;;4999150;28;20434;-42
2023/03/27 08:40:30;;;;;;;3.20;1.90;;;;;;;;;;4999626;28;20452;-42
2023/03/27 08:42:58;;;;;;;2.00;1.73;;;;;;;;;;5000671;28;20860;-42
2023/03/27 08:45:27;;;;;;;4.00;1.87;;;;;;;;;;5004885;28;20477;-42
2023/03/27 08:48:00;;;;;;;6.83;2.10;;;;;;;;;;5000725;28;20404;-42
2023/03/27 08:50:33;;;;;;;2.53;1.80;;;;;;;;;;5004597;28;20445;-42
2023/03/27 08:52:59;;;;;;;3.20;1.70;;;;;;;;;;5000506;28;20416;-42
2023/03/27 08:55:33;;;;;;;6.07;1.80;;;;;;;;;;4997445;28;20923;-42
2023/03/27 08:57:59;;;;;;;2.53;1.90;;;;;;;;;;5003846;28;20497;-43
2023/03/27 09:00:30;;;;;;;4.40;2.63;;;;;;;;;;4999827;28;20441;-44
2023/03/27 09:03:00;;;;;;;2.03;1.90;;;;;;;;;;4998894;28;20463;-43
2023/03/27 09:05:49;;;;;;;4.30;2.50;;;;;;;;;;5005132;28;20461;-43
2023/03/27 09:08:33;;;;;;;4.80;2.10;;;;;;;;;;4998341;28;20424;-42
2023/03/27 09:11:26;;;;;;;2.27;2.10;;;;;;;;;;4999892;28;20500;-42
2023/03/27 09:13:53;;;;;;;6.37;2.33;;;;;;;;;;4992330;28;20427;-43
2023/03/27 09:16:30;;;;;;;4.00;2.23;;;;;;;;;;5000509;28;20420;-43
2023/03/27 09:18:56;;;;;;;4.90;2.50;;;;;;;;;;4993752;28;20415;-43
2023/03/27 09:21:35;;;;;;;2.50;1.80;;;;;;;;;;5000127;28;20440;-42
2023/03/27 09:24:05;;;;;;;5.23;2.00;;;;;;;;;;5003460;28;20416;-42
2023/03/27 09:26:35;;;;;;;4.43;1.80;;;;;;;;;;5004917;28;20430;-42
2023/03/27 09:29:04;;;;;;;4.43;2.13;;;;;;;;;;4999538;28;20450;-43
2023/03/27 09:31:32;;;;;;;5.33;3.10;;;;;;;;;;4993824;28;20865;-43
2023/03/27 09:34:11;;;;;;;5.17;2.10;;;;;;;;;;5003677;28;20433;-43
2023/03/27 09:36:37;;;;;;;1.50;1.40;;;;;;;;;;5002354;28;20514;-43
2023/03/27 09:39:15;;;;;;;2.70;2.20;;;;;;;;;;5001331;28;20437;-44
2023/03/27 09:41:44;;;;;;;2.00;1.90;;;;;;;;;;4989631;28;20507;-43
2023/03/27 09:44:24;;;;;;;5.87;2.03;;;;;;;;;;4991836;28;20493;-44
2023/03/27 09:46:53;;;;;;;2.80;1.40;;;;;;;;;;4972436;28;20960;-43
2023/03/27 09:49:20;;;;;;;3.13;1.53;;;;;;;;;;4989863;28;20413;-44
2023/03/27 09:51:52;;;;;;;1.93;1.63;;;;;;;;;;4991565;28;20478;-43
2023/03/27 09:54:19;;;;;;;6.83;2.00;;;;;;;;;;4991843;28;20425;-43
2023/03/27 09:56:52;;;;;;;5.23;2.10;;;;;;;;;;4990390;28;20915;-43
2023/03/27 09:59:26;;;;;;;1.67;1.20;;;;;;;;;;4991560;28;20420;-44
2023/03/27 10:01:54;;;;;;;1.60;1.47;;;;;;;;;;4991378;28;20508;-42
2023/03/27 10:04:22;;;;;;;5.30;1.50;;;;;;;;;;4991797;28;20470;-44
2023/03/27 10:06:51;;;;;;;3.00;1.50;;;;;;;;;;4991738;28;21124;-43
2023/03/27 10:09:21;;;;;;;2.73;1.80;;;;;;;;;;4972391;28;20964;-43
2023/03/27 10:11:49;;;;;;;5.43;1.90;;;;;;;;;;4990708;28;20793;-42
2023/03/27 10:14:17;;;;;;;1.90;1.80;;;;;;;;;;4991421;28;20471;-43
2023/03/27 10:16:46;;;;;;;2.40;1.40;;;;;;;;;;4989755;28;20433;-43
2023/03/27 10:19:20;;;;;;;3.80;1.70;;;;;;;;;;4991755;28;20418;-43
2023/03/27 10:21:47;;;;;;;5.10;1.40;;;;;;;;;;4991279;28;20451;-42
2023/03/27 10:24:21;;;;;;;2.33;1.70;;;;;;;;;;4991840;28;20843;-43
2023/03/27 10:26:48;;;;;;;2.03;1.40;;;;;;;;;;4991380;28;20410;-42
2023/03/27 10:29:20;;;;;;;1.90;1.53;;;;;;;;;;4991518;28;20474;-43
2023/03/27 10:31:51;;;;;;;6.30;2.30;;;;;;;;;;4991309;28;20487;-43
2023/03/27 10:34:31;;;;;;;1.37;1.27;;;;;;;;;;4992783;28;20423;-43
2023/03/27 10:37:00;;;;;;;4.17;1.53;;;;;;;;;;4995072;28;20426;-43
2023/03/27 10:39:27;;;;;;;2.33;1.43;;;;;;;;;;4994889;28;20423;-43
2023/03/27 10:41:53;;;;;;;1.60;1.10;;;;;;;;;;4992744;28;20473;-43
2023/03/27 10:44:24;;;;;;;2.93;1.77;;;;;;;;;;4994136;28;20498;-43
2023/03/27 10:46:50;;;;;;;4.77;1.43;;;;;;;;;;4995217;28;20435;-42
2023/03/27 10:49:23;;;;;;;2.07;1.33;;;;;;;;;;4994945;28;20478;-43
2023/03/27 10:51:51;;;;;;;1.40;1.17;;;;;;;;;;4994482;28;20450;-42
2023/03/27 10:54:33;;;;;;;2.30;1.20;;;;;;;;;;4994930;28;20448;-42
2023/03/27 10:57:04;;;;;;;3.93;1.47;;;;;;;;;;4993262;28;20420;-43
2023/03/27 10:59:45;;;;;;;4.57;1.40;;;;;;;;;;4994319;28;20409;-43
2023/03/27 11:02:14;;;;;;;1.30;1.13;;;;;;;;;;4996341;28;20525;-43
2023/03/27 11:04:55;;;;;;;3.90;1.30;;;;;;;;;;4994466;28;20910;-43
2023/03/27 11:07:36;;;;;;;1.60;1.20;;;;;;;;;;4994443;28;20420;-43
2023/03/27 11:10:10;;;;;;;4.27;1.47;;;;;;;;;;4993978;28;20439;-43
2023/03/27 11:12:37;;;;;;;2.20;1.20;;;;;;;;;;4992591;28;20407;-43
2023/03/27 11:15:19;;;;;;;5.67;1.50;;;;;;;;;;4993423;28;20810;-43
2023/03/27 11:17:53;;;;;;;2.07;1.53;;;;;;;;;;4994357;28;20505;-42
2023/03/27 11:20:43;;;;;;;1.20;1.10;;;;;;;;;;4993717;28;20910;-42
2023/03/27 11:23:13;;;;;;;2.70;1.60;;;;;;;;;;4994888;28;20461;-43
2023/03/27 11:25:40;;;;;;;1.77;1.30;;;;;;;;;;5001565;28;20437;-43
2023/03/27 11:28:06;;;;;;;4.03;1.60;;;;;;;;;;5004714;28;20484;-43
2023/03/27 11:30:35;;;;;;;2.60;1.60;;;;;;;;;;5005841;28;20953;-43
2023/03/27 11:33:23;;;;;;;5.70;1.67;;;;;;;;;;5002923;28;20451;-43
2023/03/27 11:35:53;;;;;;;2.43;1.40;;;;;;;;;;4993911;28;20420;-42
2023/03/27 11:38:22;;;;;;;6.00;1.80;;;;;;;;;;4993895;28;20439;-41
2023/03/27 11:40:48;;;;;;;4.77;2.00;;;;;;;;;;4993862;28;20766;-43
2023/03/27 11:43:18;;;;;;;1.40;1.30;;;;;;;;;;4993356;28;20470;-43
2023/03/27 11:45:44;;;;;;;3.33;1.40;;;;;;;;;;4993582;28;20420;-43
2023/03/27 11:48:13;;;;;;;3.83;1.60;;;;;;;;;;4993581;28;20435;-43
2023/03/27 11:50:40;;;;;;;2.67;0.97;;;;;;;;;;4993364;28;20507;-42
2023/03/27 11:53:16;;;;;;;3.47;1.30;;;;;;;;;;4993736;28;20439;-41
2023/03/27 11:55:58;;;;;;;1.80;1.50;;;;;;;;;;4996018;28;20938;-43
2023/03/27 11:58:25;;;;;;;4.20;3.50;;;;;;;;;;4993360;28;20429;-42
2023/03/27 12:00:51;;;;;;;2.77;2.00;;;;;;;;;;4993060;28;20441;-43
2023/03/27 12:03:17;;;;;;;8.53;3.27;;;;;;;;;;4993334;28;20459;-43
2023/03/27 12:06:04;;;;;;;5.20;2.00;;;;;;;;;;4993401;28;20416;-42
2023/03/27 12:08:42;;;;;;;2.17;2.03;;;;;;;;;;4993113;28;20911;-43
2023/03/27 12:11:09;;;;;;;1.47;1.10;;;;;;;;;;4992970;28;20523;-42
2023/03/27 12:13:36;;;;;;;4.20;2.97;;;;;;;;;;4992215;28;20419;-43
2023/03/27 12:16:08;;;;;;;1.67;1.40;;;;;;;;;;4993143;28;20441;-43
2023/03/27 12:18:46;;;;;;;1.53;1.43;;;;;;;;;;4993095;28;20403;-43
2023/03/27 12:21:29;;;;;;;3.20;1.80;;;;;;;;;;4992951;28;20428;-43
2023/03/27 12:24:15;;;;;;;3.10;1.47;;;;;;;;;;4973657;28;20455;-43
2023/03/27 12:26:42;;;;;;;1.50;1.40;;;;;;;;;;4989219;28;20455;-42
2023/03/27 12:29:27;;;;;;;1.47;1.30;;;;;;;;;;4992658;28;20408;-42
2023/03/27 12:32:01;;;;;;;3.07;1.60;;;;;;;;;;4992549;28;20436;-42
2023/03/27 12:34:29;;;;;;;2.60;1.43;;;;;;;;;;4992830;28;20424;-43
2023/03/27 12:36:58;;;;;;;2.13;1.20;;;;;;;;;;4992686;28;20422;-43
2023/03/27 12:39:25;;;;;;;4.30;2.03;;;;;;;;;;4992498;28;20412;-43
2023/03/27 12:41:51;;;;;;;1.40;1.30;;;;;;;;;;4992270;28;20478;-44
2023/03/27 12:44:18;;;;;;;4.30;1.40;;;;;;;;;;4992650;28;20433;-43
2023/03/27 12:47:03;;;;;;;1.63;1.17;;;;;;;;;;4991875;28;20386;-42
2023/03/27 12:49:42;;;;;;;2.40;1.40;;;;;;;;;;4992513;28;20386;-42
2023/03/27 12:52:09;;;;;;;2.17;1.20;;;;;;;;;;4991298;28;20612;-42
2023/03/27 12:54:37;;;;;;;3.20;1.47;;;;;;;;;;4992601;28;20401;-42
2023/03/27 12:57:15;;;;;;;2.17;1.50;;;;;;;;;;4989457;28;20435;-43
2023/03/27 12:59:47;;;;;;;3.20;1.23;;;;;;;;;;4992070;28;20429;-42
2023/03/27 13:02:22;;;;;;;1.37;1.10;;;;;;;;;;4992417;28;20493;-42
2023/03/27 13:05:03;;;;;;;2.13;1.30;;;;;;;;;;4992511;28;20443;-43
2023/03/27 13:07:33;;;;;;;3.00;1.60;;;;;;;;;;4992465;28;20474;-42
2023/03/27 13:10:05;;;;;;;5.53;1.40;;;;;;;;;;4992223;28;20423;-43
2023/03/27 13:12:56;;;;;;;1.87;1.77;;;;;;;;;;4992390;28;20442;-43
2023/03/27 13:15:27;;;;;;;1.50;1.40;;;;;;;;;;4992305;28;20482;-42
2023/03/27 13:17:53;;;;;;;1.63;1.50;;;;;;;;;;4992539;28;20780;-42
2023/03/27 13:20:34;;;;;;;3.90;1.93;;;;;;;;;;4991920;28;20416;-42
2023/03/27 13:23:18;;;;;;;5.03;2.27;;;;;;;;;;4992163;28;20519;-43
2023/03/27 13:26:01;;;;;;;3.70;1.80;;;;;;;;;;4991100;28;20911;-43
2023/03/27 13:28:41;;;;;;;2.47;1.40;;;;;;;;;;4991908;28;20424;-42
2023/03/27 13:31:10;;;;;;;2.00;1.80;;;;;;;;;;4975290;28;20828;-41
2023/03/27 13:33:44;;;;;;;2.20;1.80;;;;;;;;;;4992002;28;20417;-42
2023/03/27 13:36:16;;;;;;;6.10;2.03;;;;;;;;;;4990829;28;20490;-42
2023/03/27 13:38:51;;;;;;;5.73;2.20;;;;;;;;;;4992036;28;20412;-42
2023/03/27 13:41:35;;;;;;;3.43;1.70;;;;;;;;;;4991804;28;20486;-41
2023/03/27 13:44:02;;;;;;;14.50;2.80;;;;;;;;;;4991709;28;20440;-42
2023/03/27 13:46:29;;;;;;;1.40;1.30;;;;;;;;;;4992087;28;20416;-42
2023/03/27 13:49:06;;;;;;;2.23;1.30;;;;;;;;;;4991986;28;20416;-42
2023/03/27 13:51:51;;;;;;;1.55;1.40;;;;;;;;;;5001391;28;20427;-42
2023/03/27 13:54:37;;;;;;;1.10;1.00;;;;;;;;;;4998684;28;20701;-42
2023/03/27 13:57:21;;;;;;;4.23;1.40;;;;;;;;;;4999036;28;20827;-42
2023/03/27 13:59:57;;;;;;;2.70;1.47;;;;;;;;;;4998431;28;20788;-42
2023/03/27 14:02:36;;;;;;;1.30;1.20;;;;;;;;;;5001377;28;20457;-42
2023/03/27 14:05:03;;;;;;;4.40;1.10;;;;;;;;;;4994705;28;20422;-42
2023/03/27 14:07:56;;;;;;;1.20;1.10;;;;;;;;;;4998389;28;20454;-43
2023/03/27 14:10:31;;;;;;;2.00;1.23;;;;;;;;;;5004402;28;20429;-43
2023/03/27 14:13:07;;;;;;;1.33;1.00;;;;;;;;;;4997294;28;20428;-42
2023/03/27 14:15:51;;;;;;;1.40;1.30;;;;;;;;;;5010783;28;20449;-43
2023/03/27 14:18:17;;;;;;;1.50;1.10;;;;;;;;;;5003617;28;20423;-42
2023/03/27 14:20:44;;;;;;;4.30;1.23;;;;;;;;;;5007797;28;20449;-42
2023/03/27 14:23:15;;;;;;;1.63;1.10;;;;;;;;;;5005199;28;20842;-42
2023/03/27 14:25:46;;;;;;;1.67;1.07;;;;;;;;;;5000064;28;20472;-42
2023/03/27 14:28:30;;;;;;;2.70;1.53;;;;;;;;;;5007014;28;20418;-42
2023/03/27 14:30:58;;;;;;;1.83;1.27;;;;;;;;;;4999527;28;20429;-43
2023/03/27 14:33:24;;;;;;;2.13;1.90;;;;;;;;;;5003247;28;20506;-42
2023/03/27 14:35:54;;;;;;;2.03;1.07;;;;;;;;;;5013280;28;20414;-43
2023/03/27 14:38:24;;;;;;;3.97;1.20;;;;;;;;;;5003209;28;20417;-43
2023/03/27 14:40:54;;;;;;;4.77;2.00;;;;;;;;;;4996815;28;20450;-43
2023/03/27 14:43:21;;;;;;;1.70;1.23;;;;;;;;;;5005531;28;20473;-46
2023/03/27 14:45:48;;;;;;;5.70;1.23;;;;;;;;;;4999478;28;20459;-43
2023/03/27 14:48:16;;;;;;;1.73;1.60;;;;;;;;;;4999006;28;20444;-44
2023/03/27 14:50:42;;;;;;;2.40;1.23;;;;;;;;;;5007081;28;20405;-44
2023/03/27 14:53:10;;;;;;;1.70;1.30;;;;;;;;;;4998047;28;20441;-42
2023/03/27 14:55:38;;;;;;;2.20;1.30;;;;;;;;;;5004828;28;20506;-43
2023/03/27 14:58:08;;;;;;;1.47;1.30;;;;;;;;;;5001421;28;20392;-42
2023/03/27 15:00:35;;;;;;;1.40;1.30;;;;;;;;;;5007721;28;21081;-43